sensor_id;sensor_type;location;lat;lon;timestamp;P1;durP1;ratioP1;P2;durP2;ratioP2
22223;SDS011;11281;52.194;21.006;2023-10-09T00:03:42;3.72;;;2.38;;
22223;SDS011;11281;52.194;21.006;2023-10-09T00:07:45;5.47;;;2.67;;
22223;SDS011;11281;52.194;21.006;2023-10-09T00:11:47;2.47;;;2.22;;
22223;SDS011;11281;52.194;21.006;2023-10-09T00:15:49;3.55;;;2.60;;
22223;SDS011;11281;52.194;21.006;2023-10-09T00:19:54;5.60;;;2.38;;
22223;SDS011;11281;52.194;21.006;2023-10-09T00:24:00;6.45;;;2.50;;
22223;SDS011;11281;52.194;21.006;2023-10-09T00:28:06;4.68;;;2.67;;
22223;SDS011;11281;52.194;21.006;2023-10-09T00:32:11;5.03;;;2.67;;
22223;SDS011;11281;52.194;21.006;2023-10-09T00:36:24;3.28;;;2.45;;
22223;SDS011;11281;52.194;21.006;2023-10-09T00:40:32;4.32;;;2.28;;
22223;SDS011;11281;52.194;21.006;2023-10-09T00:44:36;5.40;;;2.47;;
22223;SDS011;11281;52.194;21.006;2023-10-09T00:48:42;4.13;;;2.28;;
22223;SDS011;11281;52.194;21.006;2023-10-09T00:52:49;6.38;;;2.65;;
22223;SDS011;11281;52.194;21.006;2023-10-09T00:57:04;4.05;;;2.60;;
22223;SDS011;11281;52.194;21.006;2023-10-09T01:01:08;4.55;;;2.50;;
22223;SDS011;11281;52.194;21.006;2023-10-09T01:05:16;4.95;;;3.17;;
22223;SDS011;11281;52.194;21.006;2023-10-09T01:09:20;6.75;;;2.92;;
22223;SDS011;11281;52.194;21.006;2023-10-09T01:13:24;5.10;;;3.00;;
22223;SDS011;11281;52.194;21.006;2023-10-09T01:17:47;3.60;;;3.25;;
22223;SDS011;11281;52.194;21.006;2023-10-09T01:21:49;5.10;;;2.67;;
22223;SDS011;11281;52.194;21.006;2023-10-09T01:26:04;6.05;;;3.15;;
22223;SDS011;11281;52.194;21.006;2023-10-09T01:30:06;4.80;;;2.90;;
22223;SDS011;11281;52.194;21.006;2023-10-09T01:34:14;2.92;;;2.60;;
22223;SDS011;11281;52.194;21.006;2023-10-09T01:38:16;7.38;;;3.60;;
22223;SDS011;11281;52.194;21.006;2023-10-09T01:42:18;3.95;;;2.75;;
22223;SDS011;11281;52.194;21.006;2023-10-09T01:46:44;4.15;;;2.70;;
22223;SDS011;11281;52.194;21.006;2023-10-09T01:50:49;4.97;;;3.15;;
22223;SDS011;11281;52.194;21.006;2023-10-09T01:54:51;8.05;;;3.35;;
22223;SDS011;11281;52.194;21.006;2023-10-09T01:58:54;3.22;;;2.80;;
22223;SDS011;11281;52.194;21.006;2023-10-09T02:02:58;4.85;;;2.75;;
22223;SDS011;11281;52.194;21.006;2023-10-09T02:07:05;5.00;;;2.70;;
22223;SDS011;11281;52.194;21.006;2023-10-09T02:11:09;7.88;;;2.65;;
22223;SDS011;11281;52.194;21.006;2023-10-09T02:15:15;5.88;;;2.63;;
22223;SDS011;11281;52.194;21.006;2023-10-09T02:19:17;7.32;;;3.47;;
22223;SDS011;11281;52.194;21.006;2023-10-09T02:23:35;4.43;;;2.87;;
22223;SDS011;11281;52.194;21.006;2023-10-09T02:27:52;3.50;;;2.30;;
22223;SDS011;11281;52.194;21.006;2023-10-09T02:31:54;3.83;;;2.58;;
22223;SDS011;11281;52.194;21.006;2023-10-09T02:36:02;5.60;;;2.60;;
22223;SDS011;11281;52.194;21.006;2023-10-09T02:40:06;5.20;;;2.88;;
22223;SDS011;11281;52.194;21.006;2023-10-09T02:44:10;5.28;;;2.88;;
22223;SDS011;11281;52.194;21.006;2023-10-09T02:48:11;3.03;;;2.25;;
22223;SDS011;11281;52.194;21.006;2023-10-09T02:52:14;4.18;;;2.33;;
22223;SDS011;11281;52.194;21.006;2023-10-09T02:56:19;2.65;;;2.08;;
22223;SDS011;11281;52.194;21.006;2023-10-09T03:00:51;5.53;;;3.17;;
22223;SDS011;11281;52.194;21.006;2023-10-09T03:04:52;6.88;;;3.25;;
22223;SDS011;11281;52.194;21.006;2023-10-09T03:08:59;5.38;;;3.33;;
22223;SDS011;11281;52.194;21.006;2023-10-09T03:13:02;6.72;;;2.15;;
22223;SDS011;11281;52.194;21.006;2023-10-09T03:17:06;4.43;;;2.22;;
22223;SDS011;11281;52.194;21.006;2023-10-09T03:21:12;7.60;;;2.70;;
22223;SDS011;11281;52.194;21.006;2023-10-09T03:25:15;7.03;;;3.03;;
22223;SDS011;11281;52.194;21.006;2023-10-09T03:29:17;4.60;;;3.40;;
22223;SDS011;11281;52.194;21.006;2023-10-09T03:33:20;4.57;;;3.10;;
22223;SDS011;11281;52.194;21.006;2023-10-09T03:37:23;4.75;;;3.03;;
22223;SDS011;11281;52.194;21.006;2023-10-09T03:41:35;3.15;;;2.55;;
22223;SDS011;11281;52.194;21.006;2023-10-09T03:45:42;4.82;;;3.05;;
22223;SDS011;11281;52.194;21.006;2023-10-09T03:49:53;5.60;;;2.40;;
22223;SDS011;11281;52.194;21.006;2023-10-09T03:53:55;5.25;;;2.88;;
22223;SDS011;11281;52.194;21.006;2023-10-09T03:57:57;5.82;;;2.88;;
22223;SDS011;11281;52.194;21.006;2023-10-09T04:02:00;4.75;;;3.00;;
22223;SDS011;11281;52.194;21.006;2023-10-09T04:06:05;4.20;;;2.55;;
22223;SDS011;11281;52.194;21.006;2023-10-09T04:10:09;5.20;;;2.92;;
22223;SDS011;11281;52.194;21.006;2023-10-09T04:14:29;4.25;;;2.45;;
22223;SDS011;11281;52.194;21.006;2023-10-09T04:18:36;5.97;;;2.45;;
22223;SDS011;11281;52.194;21.006;2023-10-09T04:22:39;4.85;;;2.72;;
22223;SDS011;11281;52.194;21.006;2023-10-09T04:26:51;7.13;;;3.53;;
22223;SDS011;11281;52.194;21.006;2023-10-09T04:30:59;5.57;;;3.38;;
22223;SDS011;11281;52.194;21.006;2023-10-09T04:35:09;3.17;;;2.88;;
22223;SDS011;11281;52.194;21.006;2023-10-09T04:39:27;4.50;;;3.38;;
22223;SDS011;11281;52.194;21.006;2023-10-09T04:43:32;4.88;;;2.42;;
22223;SDS011;11281;52.194;21.006;2023-10-09T04:47:36;3.80;;;2.47;;
22223;SDS011;11281;52.194;21.006;2023-10-09T04:51:39;8.05;;;4.40;;
22223;SDS011;11281;52.194;21.006;2023-10-09T04:56:00;9.85;;;3.50;;
22223;SDS011;11281;52.194;21.006;2023-10-09T05:00:05;5.15;;;3.30;;
22223;SDS011;11281;52.194;21.006;2023-10-09T05:04:23;7.07;;;3.83;;
22223;SDS011;11281;52.194;21.006;2023-10-09T05:08:40;6.85;;;3.80;;
22223;SDS011;11281;52.194;21.006;2023-10-09T05:12:47;6.40;;;3.80;;
22223;SDS011;11281;52.194;21.006;2023-10-09T05:16:57;4.95;;;3.47;;
22223;SDS011;11281;52.194;21.006;2023-10-09T05:21:03;6.22;;;4.28;;
22223;SDS011;11281;52.194;21.006;2023-10-09T05:25:25;5.85;;;3.17;;
22223;SDS011;11281;52.194;21.006;2023-10-09T05:29:46;7.30;;;3.90;;
22223;SDS011;11281;52.194;21.006;2023-10-09T05:34:00;5.68;;;2.80;;
22223;SDS011;11281;52.194;21.006;2023-10-09T05:38:02;4.13;;;2.90;;
22223;SDS011;11281;52.194;21.006;2023-10-09T05:42:16;5.88;;;3.63;;
22223;SDS011;11281;52.194;21.006;2023-10-09T05:46:18;4.57;;;3.35;;
22223;SDS011;11281;52.194;21.006;2023-10-09T05:50:20;7.97;;;3.13;;
22223;SDS011;11281;52.194;21.006;2023-10-09T05:54:26;4.47;;;3.00;;
22223;SDS011;11281;52.194;21.006;2023-10-09T05:58:47;9.40;;;4.10;;
22223;SDS011;11281;52.194;21.006;2023-10-09T06:03:06;4.65;;;2.95;;
22223;SDS011;11281;52.194;21.006;2023-10-09T06:07:20;8.20;;;4.03;;
22223;SDS011;11281;52.194;21.006;2023-10-09T06:11:42;6.85;;;3.92;;
22223;SDS011;11281;52.194;21.006;2023-10-09T06:15:56;6.63;;;3.40;;
22223;SDS011;11281;52.194;21.006;2023-10-09T06:20:10;7.00;;;3.67;;
22223;SDS011;11281;52.194;21.006;2023-10-09T06:24:30;14.85;;;4.05;;
22223;SDS011;11281;52.194;21.006;2023-10-09T06:28:43;12.38;;;5.53;;
22223;SDS011;11281;52.194;21.006;2023-10-09T06:32:50;5.53;;;3.25;;
22223;SDS011;11281;52.194;21.006;2023-10-09T06:36:59;6.57;;;3.63;;
22223;SDS011;11281;52.194;21.006;2023-10-09T06:41:18;6.30;;;3.83;;
22223;SDS011;11281;52.194;21.006;2023-10-09T06:45:36;7.85;;;4.55;;
22223;SDS011;11281;52.194;21.006;2023-10-09T06:49:46;6.47;;;3.65;;
22223;SDS011;11281;52.194;21.006;2023-10-09T06:54:08;6.97;;;3.95;;
22223;SDS011;11281;52.194;21.006;2023-10-09T06:58:17;7.35;;;3.75;;
22223;SDS011;11281;52.194;21.006;2023-10-09T07:02:42;8.30;;;3.65;;
22223;SDS011;11281;52.194;21.006;2023-10-09T07:06:49;15.13;;;5.60;;
22223;SDS011;11281;52.194;21.006;2023-10-09T07:11:00;6.57;;;3.78;;
22223;SDS011;11281;52.194;21.006;2023-10-09T07:15:20;6.63;;;3.97;;
22223;SDS011;11281;52.194;21.006;2023-10-09T07:19:43;5.30;;;3.97;;
22223;SDS011;11281;52.194;21.006;2023-10-09T07:23:51;4.88;;;3.60;;
22223;SDS011;11281;52.194;21.006;2023-10-09T07:27:57;7.15;;;3.47;;
22223;SDS011;11281;52.194;21.006;2023-10-09T07:32:00;6.03;;;3.63;;
22223;SDS011;11281;52.194;21.006;2023-10-09T07:36:13;7.80;;;3.65;;
22223;SDS011;11281;52.194;21.006;2023-10-09T07:40:14;3.83;;;2.72;;
22223;SDS011;11281;52.194;21.006;2023-10-09T07:44:16;8.55;;;2.80;;
22223;SDS011;11281;52.194;21.006;2023-10-09T07:48:20;3.97;;;3.17;;
22223;SDS011;11281;52.194;21.006;2023-10-09T07:52:26;8.05;;;3.20;;
22223;SDS011;11281;52.194;21.006;2023-10-09T07:56:28;10.82;;;3.50;;
22223;SDS011;11281;52.194;21.006;2023-10-09T08:00:39;7.40;;;3.08;;
22223;SDS011;11281;52.194;21.006;2023-10-09T08:05:01;6.57;;;2.65;;
22223;SDS011;11281;52.194;21.006;2023-10-09T08:09:11;5.93;;;2.83;;
22223;SDS011;11281;52.194;21.006;2023-10-09T08:13:15;5.55;;;3.78;;
22223;SDS011;11281;52.194;21.006;2023-10-09T08:17:35;6.07;;;3.42;;
22223;SDS011;11281;52.194;21.006;2023-10-09T08:21:38;4.28;;;3.33;;
22223;SDS011;11281;52.194;21.006;2023-10-09T08:25:42;16.70;;;9.10;;
22223;SDS011;11281;52.194;21.006;2023-10-09T08:29:58;4.43;;;2.45;;
22223;SDS011;11281;52.194;21.006;2023-10-09T08:34:19;3.40;;;2.20;;
22223;SDS011;11281;52.194;21.006;2023-10-09T08:38:27;6.85;;;2.63;;
22223;SDS011;11281;52.194;21.006;2023-10-09T08:42:33;3.22;;;2.60;;
22223;SDS011;11281;52.194;21.006;2023-10-09T08:46:35;6.95;;;3.38;;
22223;SDS011;11281;52.194;21.006;2023-10-09T08:50:56;72.22;;;34.97;;
22223;SDS011;11281;52.194;21.006;2023-10-09T08:54:59;11.30;;;6.57;;
22223;SDS011;11281;52.194;21.006;2023-10-09T08:59:01;4.13;;;2.42;;
22223;SDS011;11281;52.194;21.006;2023-10-09T09:03:03;3.10;;;2.80;;
22223;SDS011;11281;52.194;21.006;2023-10-09T09:07:06;5.45;;;3.00;;
22223;SDS011;11281;52.194;21.006;2023-10-09T09:11:26;5.32;;;3.60;;
22223;SDS011;11281;52.194;21.006;2023-10-09T09:15:31;3.58;;;2.53;;
22223;SDS011;11281;52.194;21.006;2023-10-09T09:19:33;4.40;;;2.80;;
22223;SDS011;11281;52.194;21.006;2023-10-09T09:23:40;4.82;;;3.25;;
22223;SDS011;11281;52.194;21.006;2023-10-09T09:28:08;3.95;;;2.60;;
22223;SDS011;11281;52.194;21.006;2023-10-09T09:32:13;3.25;;;1.83;;
22223;SDS011;11281;52.194;21.006;2023-10-09T09:36:21;3.33;;;1.70;;
22223;SDS011;11281;52.194;21.006;2023-10-09T09:40:27;2.30;;;1.90;;
22223;SDS011;11281;52.194;21.006;2023-10-09T09:44:32;1.95;;;1.50;;
22223;SDS011;11281;52.194;21.006;2023-10-09T09:48:44;4.22;;;1.48;;
22223;SDS011;11281;52.194;21.006;2023-10-09T09:52:47;8.85;;;2.90;;
22223;SDS011;11281;52.194;21.006;2023-10-09T09:56:54;1.65;;;1.45;;
22223;SDS011;11281;52.194;21.006;2023-10-09T10:01:00;3.15;;;1.23;;
22223;SDS011;11281;52.194;21.006;2023-10-09T10:09:41;2.20;;;1.25;;
22223;SDS011;11281;52.194;21.006;2023-10-09T10:21:59;2.45;;;1.85;;
22223;SDS011;11281;52.194;21.006;2023-10-09T10:26:28;2.97;;;1.80;;
22223;SDS011;11281;52.194;21.006;2023-10-09T10:30:31;2.10;;;1.17;;
22223;SDS011;11281;52.194;21.006;2023-10-09T10:43:18;1.05;;;1.00;;
22223;SDS011;11281;52.194;21.006;2023-10-09T10:47:49;2.47;;;0.95;;
22223;SDS011;11281;52.194;21.006;2023-10-09T10:51:51;2.35;;;1.60;;
22223;SDS011;11281;52.194;21.006;2023-10-09T10:56:21;4.72;;;1.30;;
22223;SDS011;11281;52.194;21.006;2023-10-09T11:00:37;1.60;;;1.50;;
22223;SDS011;11281;52.194;21.006;2023-10-09T11:04:57;1.77;;;1.33;;
22223;SDS011;11281;52.194;21.006;2023-10-09T11:09:15;2.25;;;1.33;;
22223;SDS011;11281;52.194;21.006;2023-10-09T11:13:23;2.30;;;1.30;;
22223;SDS011;11281;52.194;21.006;2023-10-09T11:17:36;0.75;;;0.75;;
22223;SDS011;11281;52.194;21.006;2023-10-09T11:21:39;2.97;;;1.73;;
22223;SDS011;11281;52.194;21.006;2023-10-09T11:25:45;1.65;;;1.00;;
22223;SDS011;11281;52.194;21.006;2023-10-09T11:29:53;1.45;;;1.13;;
22223;SDS011;11281;52.194;21.006;2023-10-09T11:33:55;1.90;;;1.10;;
22223;SDS011;11281;52.194;21.006;2023-10-09T11:37:57;1.67;;;1.58;;
22223;SDS011;11281;52.194;21.006;2023-10-09T11:46:09;2.53;;;2.10;;
22223;SDS011;11281;52.194;21.006;2023-10-09T11:54:31;1.50;;;1.40;;
22223;SDS011;11281;52.194;21.006;2023-10-09T11:58:34;1.75;;;1.65;;
22223;SDS011;11281;52.194;21.006;2023-10-09T12:02:36;3.42;;;1.17;;
22223;SDS011;11281;52.194;21.006;2023-10-09T12:06:44;2.17;;;1.67;;
22223;SDS011;11281;52.194;21.006;2023-10-09T12:10:46;3.58;;;2.13;;
22223;SDS011;11281;52.194;21.006;2023-10-09T12:14:48;2.45;;;1.42;;
22223;SDS011;11281;52.194;21.006;2023-10-09T12:18:52;1.85;;;1.20;;
22223;SDS011;11281;52.194;21.006;2023-10-09T12:23:02;1.75;;;1.60;;
22223;SDS011;11281;52.194;21.006;2023-10-09T12:27:07;1.77;;;1.38;;
22223;SDS011;11281;52.194;21.006;2023-10-09T12:31:12;5.80;;;2.03;;
22223;SDS011;11281;52.194;21.006;2023-10-09T12:35:20;6.50;;;3.38;;
22223;SDS011;11281;52.194;21.006;2023-10-09T12:39:22;10.68;;;6.40;;
22223;SDS011;11281;52.194;21.006;2023-10-09T12:43:24;5.13;;;3.00;;
22223;SDS011;11281;52.194;21.006;2023-10-09T12:47:28;4.68;;;2.75;;
22223;SDS011;11281;52.194;21.006;2023-10-09T12:51:31;4.43;;;2.08;;
22223;SDS011;11281;52.194;21.006;2023-10-09T12:55:39;7.45;;;4.00;;
22223;SDS011;11281;52.194;21.006;2023-10-09T12:59:44;20.23;;;7.28;;
22223;SDS011;11281;52.194;21.006;2023-10-09T13:03:49;6.15;;;4.03;;
22223;SDS011;11281;52.194;21.006;2023-10-09T13:07:52;7.07;;;4.07;;
22223;SDS011;11281;52.194;21.006;2023-10-09T13:11:54;9.13;;;5.03;;
22223;SDS011;11281;52.194;21.006;2023-10-09T13:16:00;4.80;;;2.80;;
22223;SDS011;11281;52.194;21.006;2023-10-09T13:20:02;6.10;;;3.67;;
22223;SDS011;11281;52.194;21.006;2023-10-09T13:24:14;6.80;;;2.50;;
22223;SDS011;11281;52.194;21.006;2023-10-09T13:28:21;4.35;;;2.78;;
22223;SDS011;11281;52.194;21.006;2023-10-09T13:32:23;3.08;;;2.22;;
22223;SDS011;11281;52.194;21.006;2023-10-09T13:36:25;3.17;;;2.30;;
22223;SDS011;11281;52.194;21.006;2023-10-09T13:40:27;3.47;;;1.90;;
22223;SDS011;11281;52.194;21.006;2023-10-09T13:44:29;4.03;;;1.77;;
22223;SDS011;11281;52.194;21.006;2023-10-09T13:48:33;4.20;;;1.80;;
22223;SDS011;11281;52.194;21.006;2023-10-09T13:52:38;2.42;;;1.70;;
22223;SDS011;11281;52.194;21.006;2023-10-09T13:56:41;3.30;;;2.00;;
22223;SDS011;11281;52.194;21.006;2023-10-09T14:00:42;5.30;;;2.67;;
22223;SDS011;11281;52.194;21.006;2023-10-09T14:04:46;4.05;;;2.25;;
22223;SDS011;11281;52.194;21.006;2023-10-09T14:08:48;5.05;;;2.33;;
22223;SDS011;11281;52.194;21.006;2023-10-09T14:12:51;3.33;;;2.20;;
22223;SDS011;11281;52.194;21.006;2023-10-09T14:16:55;3.50;;;2.42;;
22223;SDS011;11281;52.194;21.006;2023-10-09T14:21:02;4.68;;;2.45;;
22223;SDS011;11281;52.194;21.006;2023-10-09T14:25:17;5.65;;;3.05;;
22223;SDS011;11281;52.194;21.006;2023-10-09T14:29:21;3.50;;;2.38;;
22223;SDS011;11281;52.194;21.006;2023-10-09T14:33:27;4.28;;;2.70;;
22223;SDS011;11281;52.194;21.006;2023-10-09T14:37:37;4.28;;;2.42;;
22223;SDS011;11281;52.194;21.006;2023-10-09T14:41:40;5.40;;;3.58;;
22223;SDS011;11281;52.194;21.006;2023-10-09T14:45:42;6.85;;;3.50;;
22223;SDS011;11281;52.194;21.006;2023-10-09T14:49:47;9.55;;;5.93;;
22223;SDS011;11281;52.194;21.006;2023-10-09T14:53:49;8.15;;;4.25;;
22223;SDS011;11281;52.194;21.006;2023-10-09T14:57:54;5.35;;;4.28;;
22223;SDS011;11281;52.194;21.006;2023-10-09T15:01:56;9.30;;;6.70;;
22223;SDS011;11281;52.194;21.006;2023-10-09T15:05:59;10.80;;;6.75;;
22223;SDS011;11281;52.194;21.006;2023-10-09T15:10:00;10.95;;;6.10;;
22223;SDS011;11281;52.194;21.006;2023-10-09T15:14:05;10.82;;;4.72;;
22223;SDS011;11281;52.194;21.006;2023-10-09T15:18:07;8.95;;;5.45;;
22223;SDS011;11281;52.194;21.006;2023-10-09T15:22:08;10.52;;;5.60;;
22223;SDS011;11281;52.194;21.006;2023-10-09T15:26:10;9.45;;;4.88;;
22223;SDS011;11281;52.194;21.006;2023-10-09T15:30:16;8.57;;;4.63;;
22223;SDS011;11281;52.194;21.006;2023-10-09T15:34:18;7.60;;;3.78;;
22223;SDS011;11281;52.194;21.006;2023-10-09T15:38:21;13.82;;;4.55;;
22223;SDS011;11281;52.194;21.006;2023-10-09T15:42:26;4.68;;;3.05;;
22223;SDS011;11281;52.194;21.006;2023-10-09T15:46:27;7.13;;;3.92;;
22223;SDS011;11281;52.194;21.006;2023-10-09T15:50:34;7.18;;;3.63;;
22223;SDS011;11281;52.194;21.006;2023-10-09T15:54:36;5.90;;;3.45;;
22223;SDS011;11281;52.194;21.006;2023-10-09T15:58:40;8.48;;;3.05;;
22223;SDS011;11281;52.194;21.006;2023-10-09T16:02:46;11.13;;;4.50;;
22223;SDS011;11281;52.194;21.006;2023-10-09T16:06:49;7.75;;;3.60;;
22223;SDS011;11281;52.194;21.006;2023-10-09T16:10:53;7.93;;;4.20;;
22223;SDS011;11281;52.194;21.006;2023-10-09T16:14:55;9.10;;;3.83;;
22223;SDS011;11281;52.194;21.006;2023-10-09T16:18:57;5.55;;;4.18;;
22223;SDS011;11281;52.194;21.006;2023-10-09T16:22:59;5.55;;;3.25;;
22223;SDS011;11281;52.194;21.006;2023-10-09T16:27:06;9.90;;;4.45;;
22223;SDS011;11281;52.194;21.006;2023-10-09T16:31:08;8.52;;;4.20;;
22223;SDS011;11281;52.194;21.006;2023-10-09T16:35:15;11.55;;;5.70;;
22223;SDS011;11281;52.194;21.006;2023-10-09T16:39:17;7.55;;;5.13;;
22223;SDS011;11281;52.194;21.006;2023-10-09T16:43:23;9.32;;;4.00;;
22223;SDS011;11281;52.194;21.006;2023-10-09T16:47:27;8.65;;;5.32;;
22223;SDS011;11281;52.194;21.006;2023-10-09T16:51:30;13.52;;;5.22;;
22223;SDS011;11281;52.194;21.006;2023-10-09T16:55:32;6.32;;;4.53;;
22223;SDS011;11281;52.194;21.006;2023-10-09T16:59:35;7.15;;;4.40;;
22223;SDS011;11281;52.194;21.006;2023-10-09T17:03:40;7.60;;;4.53;;
22223;SDS011;11281;52.194;21.006;2023-10-09T17:07:47;9.25;;;5.10;;
22223;SDS011;11281;52.194;21.006;2023-10-09T17:11:50;7.97;;;4.47;;
22223;SDS011;11281;52.194;21.006;2023-10-09T17:15:53;6.03;;;4.90;;
22223;SDS011;11281;52.194;21.006;2023-10-09T17:19:55;12.50;;;5.65;;
22223;SDS011;11281;52.194;21.006;2023-10-09T17:23:59;10.77;;;5.45;;
22223;SDS011;11281;52.194;21.006;2023-10-09T17:28:00;13.38;;;5.75;;
22223;SDS011;11281;52.194;21.006;2023-10-09T17:32:01;10.57;;;5.38;;
22223;SDS011;11281;52.194;21.006;2023-10-09T17:36:06;10.82;;;5.53;;
22223;SDS011;11281;52.194;21.006;2023-10-09T17:40:08;13.55;;;6.75;;
22223;SDS011;11281;52.194;21.006;2023-10-09T17:44:10;8.55;;;5.45;;
22223;SDS011;11281;52.194;21.006;2023-10-09T17:48:12;9.18;;;5.93;;
22223;SDS011;11281;52.194;21.006;2023-10-09T17:52:14;14.55;;;6.78;;
22223;SDS011;11281;52.194;21.006;2023-10-09T17:56:16;12.43;;;7.00;;
22223;SDS011;11281;52.194;21.006;2023-10-09T18:00:19;12.45;;;5.97;;
22223;SDS011;11281;52.194;21.006;2023-10-09T18:04:23;13.20;;;6.97;;
22223;SDS011;11281;52.194;21.006;2023-10-09T18:08:25;11.48;;;6.25;;
22223;SDS011;11281;52.194;21.006;2023-10-09T18:12:27;14.00;;;7.35;;
22223;SDS011;11281;52.194;21.006;2023-10-09T18:16:29;13.88;;;6.38;;
22223;SDS011;11281;52.194;21.006;2023-10-09T18:20:31;14.10;;;7.05;;
22223;SDS011;11281;52.194;21.006;2023-10-09T18:24:32;14.38;;;7.97;;
22223;SDS011;11281;52.194;21.006;2023-10-09T18:28:41;15.63;;;7.28;;
22223;SDS011;11281;52.194;21.006;2023-10-09T18:32:45;13.52;;;8.27;;
22223;SDS011;11281;52.194;21.006;2023-10-09T18:36:46;12.73;;;8.75;;
22223;SDS011;11281;52.194;21.006;2023-10-09T18:40:49;16.83;;;9.07;;
22223;SDS011;11281;52.194;21.006;2023-10-09T18:44:50;13.90;;;9.05;;
22223;SDS011;11281;52.194;21.006;2023-10-09T18:48:53;13.95;;;7.90;;
22223;SDS011;11281;52.194;21.006;2023-10-09T18:53:02;16.38;;;8.43;;
22223;SDS011;11281;52.194;21.006;2023-10-09T18:57:04;13.13;;;7.55;;
22223;SDS011;11281;52.194;21.006;2023-10-09T19:01:06;13.45;;;7.25;;
22223;SDS011;11281;52.194;21.006;2023-10-09T19:05:13;15.85;;;7.70;;
22223;SDS011;11281;52.194;21.006;2023-10-09T19:09:14;10.90;;;7.50;;
22223;SDS011;11281;52.194;21.006;2023-10-09T19:13:22;14.70;;;8.02;;
22223;SDS011;11281;52.194;21.006;2023-10-09T19:17:23;13.35;;;7.55;;
22223;SDS011;11281;52.194;21.006;2023-10-09T19:21:26;15.77;;;8.15;;
22223;SDS011;11281;52.194;21.006;2023-10-09T19:25:30;14.57;;;7.75;;
22223;SDS011;11281;52.194;21.006;2023-10-09T19:29:34;15.05;;;7.25;;
22223;SDS011;11281;52.194;21.006;2023-10-09T19:33:36;12.50;;;7.18;;
22223;SDS011;11281;52.194;21.006;2023-10-09T19:37:47;24.83;;;10.57;;
22223;SDS011;11281;52.194;21.006;2023-10-09T19:41:49;19.15;;;8.80;;
22223;SDS011;11281;52.194;21.006;2023-10-09T19:45:50;12.35;;;7.97;;
22223;SDS011;11281;52.194;21.006;2023-10-09T19:49:53;17.17;;;7.65;;
22223;SDS011;11281;52.194;21.006;2023-10-09T19:53:54;12.55;;;7.15;;
22223;SDS011;11281;52.194;21.006;2023-10-09T19:57:56;16.65;;;8.48;;
22223;SDS011;11281;52.194;21.006;2023-10-09T20:01:57;12.07;;;7.22;;
22223;SDS011;11281;52.194;21.006;2023-10-09T20:06:01;9.65;;;7.25;;
22223;SDS011;11281;52.194;21.006;2023-10-09T20:10:05;13.85;;;7.10;;
22223;SDS011;11281;52.194;21.006;2023-10-09T20:14:07;11.75;;;7.68;;
22223;SDS011;11281;52.194;21.006;2023-10-09T20:18:10;15.10;;;8.18;;
22223;SDS011;11281;52.194;21.006;2023-10-09T20:22:11;14.35;;;7.60;;
22223;SDS011;11281;52.194;21.006;2023-10-09T20:26:14;19.95;;;9.80;;
22223;SDS011;11281;52.194;21.006;2023-10-09T20:30:16;17.95;;;9.38;;
22223;SDS011;11281;52.194;21.006;2023-10-09T20:34:18;19.50;;;9.13;;
22223;SDS011;11281;52.194;21.006;2023-10-09T20:38:21;21.15;;;9.13;;
22223;SDS011;11281;52.194;21.006;2023-10-09T20:42:23;18.27;;;9.82;;
22223;SDS011;11281;52.194;21.006;2023-10-09T20:46:25;14.77;;;8.70;;
22223;SDS011;11281;52.194;21.006;2023-10-09T20:50:31;22.50;;;9.15;;
22223;SDS011;11281;52.194;21.006;2023-10-09T20:54:32;16.98;;;8.68;;
22223;SDS011;11281;52.194;21.006;2023-10-09T20:58:34;20.70;;;10.43;;
22223;SDS011;11281;52.194;21.006;2023-10-09T21:02:36;15.93;;;8.95;;
22223;SDS011;11281;52.194;21.006;2023-10-09T21:06:37;19.80;;;9.98;;
22223;SDS011;11281;52.194;21.006;2023-10-09T21:10:40;18.17;;;10.35;;
22223;SDS011;11281;52.194;21.006;2023-10-09T21:14:42;22.45;;;10.27;;
22223;SDS011;11281;52.194;21.006;2023-10-09T21:18:45;27.75;;;10.68;;
22223;SDS011;11281;52.194;21.006;2023-10-09T21:22:48;18.83;;;10.20;;
22223;SDS011;11281;52.194;21.006;2023-10-09T21:26:51;25.90;;;11.48;;
22223;SDS011;11281;52.194;21.006;2023-10-09T21:30:55;15.98;;;10.02;;
22223;SDS011;11281;52.194;21.006;2023-10-09T21:34:58;22.23;;;11.05;;
22223;SDS011;11281;52.194;21.006;2023-10-09T21:39:02;16.15;;;9.40;;
22223;SDS011;11281;52.194;21.006;2023-10-09T21:43:09;16.85;;;9.70;;
22223;SDS011;11281;52.194;21.006;2023-10-09T21:47:10;20.30;;;10.00;;
22223;SDS011;11281;52.194;21.006;2023-10-09T21:51:12;18.75;;;9.65;;
22223;SDS011;11281;52.194;21.006;2023-10-09T21:55:16;19.33;;;10.82;;
22223;SDS011;11281;52.194;21.006;2023-10-09T21:59:18;23.75;;;11.50;;
22223;SDS011;11281;52.194;21.006;2023-10-09T22:03:20;19.00;;;9.73;;
22223;SDS011;11281;52.194;21.006;2023-10-09T22:07:22;17.85;;;10.13;;
22223;SDS011;11281;52.194;21.006;2023-10-09T22:11:24;17.67;;;9.93;;
22223;SDS011;11281;52.194;21.006;2023-10-09T22:15:28;15.00;;;9.27;;
22223;SDS011;11281;52.194;21.006;2023-10-09T22:19:31;18.33;;;10.20;;
22223;SDS011;11281;52.194;21.006;2023-10-09T22:23:37;20.63;;;10.68;;
22223;SDS011;11281;52.194;21.006;2023-10-09T22:27:46;15.07;;;10.88;;
22223;SDS011;11281;52.194;21.006;2023-10-09T22:32:01;16.70;;;8.90;;
22223;SDS011;11281;52.194;21.006;2023-10-09T22:36:03;16.70;;;9.18;;
22223;SDS011;11281;52.194;21.006;2023-10-09T22:40:05;19.38;;;9.73;;
22223;SDS011;11281;52.194;21.006;2023-10-09T22:44:27;17.17;;;9.57;;
22223;SDS011;11281;52.194;21.006;2023-10-09T22:48:33;18.88;;;9.32;;
22223;SDS011;11281;52.194;21.006;2023-10-09T22:52:42;21.17;;;10.55;;
22223;SDS011;11281;52.194;21.006;2023-10-09T22:56:46;19.77;;;11.43;;
22223;SDS011;11281;52.194;21.006;2023-10-09T23:00:48;15.70;;;8.98;;
22223;SDS011;11281;52.194;21.006;2023-10-09T23:04:53;18.77;;;9.13;;
22223;SDS011;11281;52.194;21.006;2023-10-09T23:09:05;16.88;;;9.77;;
22223;SDS011;11281;52.194;21.006;2023-10-09T23:13:17;15.68;;;9.15;;
22223;SDS011;11281;52.194;21.006;2023-10-09T23:17:22;14.85;;;8.82;;
22223;SDS011;11281;52.194;21.006;2023-10-09T23:21:43;17.88;;;9.85;;
22223;SDS011;11281;52.194;21.006;2023-10-09T23:26:03;17.13;;;9.65;;
22223;SDS011;11281;52.194;21.006;2023-10-09T23:30:07;25.90;;;10.32;;
22223;SDS011;11281;52.194;21.006;2023-10-09T23:34:26;17.70;;;9.43;;
22223;SDS011;11281;52.194;21.006;2023-10-09T23:38:34;17.38;;;9.70;;
22223;SDS011;11281;52.194;21.006;2023-10-09T23:42:35;21.58;;;10.95;;
22223;SDS011;11281;52.194;21.006;2023-10-09T23:46:39;25.65;;;14.63;;
22223;SDS011;11281;52.194;21.006;2023-10-09T23:50:41;26.27;;;13.55;;
22223;SDS011;11281;52.194;21.006;2023-10-09T23:54:48;28.00;;;14.10;;
22223;SDS011;11281;52.194;21.006;2023-10-09T23:58:50;30.80;;;14.95;;
